Time;durP1;ratioP1;P1;durP2;ratioP2;P2;SDS_P1;SDS_P2;PMS_P1;PMS_P2;Temp;Humidity;BMP_temperature;BMP_pressure;BME280_temperature;BME280_humidity;BME280_pressure;Samples;Min_cycle;Max_cycle;Signal;HPM_P1;HPM_P2
2022/12/01 00:03:23;;;;;;;;;;;5.80;99.90;;;;;;8396838;28;19974;-78
2022/12/01 00:07:25;;;;;;;;;;;5.80;99.90;;;;;;8412372;28;19930;-77
2022/12/01 00:11:27;;;;;;;;;;;5.80;99.90;;;;;;8401349;28;19925;-78
2022/12/01 00:15:30;;;;;;;;;;;5.90;99.90;;;;;;8402928;28;20042;-77
2022/12/01 00:19:32;;;;;;;;;;;5.90;99.90;;;;;;8418988;28;20018;-78
2022/12/01 00:23:33;;;;;;;;;;;5.90;99.90;;;;;;8414897;28;20006;-77
2022/12/01 00:27:35;;;;;;;;;;;5.90;99.90;;;;;;8394276;28;19935;-77
2022/12/01 00:31:37;;;;;;;;;;;5.90;99.90;;;;;;8424972;28;20395;-78
2022/12/01 00:35:39;;;;;;;;;;;5.90;99.90;;;;;;8398410;28;20006;-78
2022/12/01 00:50:03;;;;;;;;;;;5.90;99.90;;;;;;8421245;28;19939;-78
2022/12/01 00:54:33;;;;;;;;;;;5.80;99.90;;;;;;8415223;28;19924;-78
2022/12/01 00:58:34;;;;;;;;;;;5.80;99.90;;;;;;8412503;28;19927;-78
2022/12/01 01:02:37;;;;;;;;;;;5.80;99.90;;;;;;8419119;28;20761;-78
2022/12/01 01:06:39;;;;;;;;;;;5.80;99.90;;;;;;8415641;28;20352;-78
2022/12/01 01:10:41;;;;;;;;;;;5.80;99.90;;;;;;8420521;28;19947;-78
2022/12/01 01:14:43;;;;;;;;;;;5.70;99.90;;;;;;8412567;28;20353;-78
2022/12/01 01:18:45;;;;;;;;;;;5.70;99.90;;;;;;8421033;28;20475;-78
2022/12/01 01:22:46;;;;;;;;;;;5.70;99.90;;;;;;8420002;28;19927;-78
2022/12/01 01:26:48;;;;;;;;;;;5.70;99.90;;;;;;8419760;28;19936;-77
2022/12/01 01:30:50;;;;;;;;;;;5.70;99.90;;;;;;8431315;28;19929;-77
2022/12/01 01:34:51;;;;;;;;;;;5.70;99.90;;;;;;8420387;28;20358;-78
2022/12/01 01:38:54;;;;;;;;;;;5.70;99.90;;;;;;8412540;28;19924;-77
2022/12/01 01:42:56;;;;;;;;;;;5.70;99.90;;;;;;8400155;28;20336;-77
2022/12/01 01:46:57;;;;;;;;;;;5.80;99.90;;;;;;8405033;28;20372;-77
2022/12/01 01:50:59;;;;;;;;;;;5.80;99.90;;;;;;8412477;28;20001;-77
2022/12/01 01:55:01;;;;;;;;;;;5.80;99.90;;;;;;8398437;28;19935;-77
2022/12/01 01:59:03;;;;;;;;;;;5.80;99.90;;;;;;8399885;28;19929;-77
2022/12/01 02:03:06;;;;;;;;;;;5.80;99.90;;;;;;8413688;28;19932;-77
2022/12/01 02:07:10;;;;;;;;;;;5.80;99.90;;;;;;8413850;28;19924;-77
2022/12/01 02:11:23;;;;;;;;;;;5.80;99.90;;;;;;8401296;28;20302;-78
2022/12/01 02:15:31;;;;;;;;;;;5.80;99.90;;;;;;8414696;28;19924;-78
2022/12/01 02:19:41;;;;;;;;;;;5.80;99.90;;;;;;8417443;28;19927;-78
2022/12/01 02:23:58;;;;;;;;;;;5.80;99.90;;;;;;8398550;28;20283;-77
2022/12/01 02:28:14;;;;;;;;;;;5.80;99.90;;;;;;8411694;28;19932;-77
2022/12/01 02:32:22;;;;;;;;;;;5.80;99.90;;;;;;8418605;28;19967;-77
2022/12/01 02:36:42;;;;;;;;;;;5.90;99.90;;;;;;8414198;28;19932;-78
2022/12/01 02:41:00;;;;;;;;;;;5.90;99.90;;;;;;8414004;28;20035;-78
2022/12/01 02:45:09;;;;;;;;;;;5.90;99.90;;;;;;8398920;28;19938;-77
2022/12/01 02:49:19;;;;;;;;;;;5.90;99.90;;;;;;8415657;28;20375;-78
2022/12/01 02:53:21;;;;;;;;;;;5.90;99.90;;;;;;8402737;28;19963;-78
2022/12/01 02:57:23;;;;;;;;;;;5.90;99.90;;;;;;8405043;28;19935;-78
2022/12/01 03:01:41;;;;;;;;;;;5.90;99.90;;;;;;8422446;28;19932;-77
2022/12/01 03:05:49;;;;;;;;;;;5.90;99.90;;;;;;8408602;28;19962;-77
2022/12/01 03:10:03;;;;;;;;;;;6.00;99.90;;;;;;8405860;28;19943;-77
2022/12/01 03:14:09;;;;;;;;;;;6.00;99.90;;;;;;8409435;28;19970;-78
2022/12/01 03:18:31;;;;;;;;;;;6.00;99.90;;;;;;8397068;28;20380;-77
2022/12/01 03:22:43;;;;;;;;;;;6.00;99.90;;;;;;8412503;28;20337;-78
2022/12/01 03:26:45;;;;;;;;;;;6.00;99.90;;;;;;8429883;28;20610;-77
2022/12/01 03:30:49;;;;;;;;;;;6.00;99.90;;;;;;8423737;28;19955;-78
2022/12/01 03:34:54;;;;;;;;;;;6.10;99.90;;;;;;8414963;28;20014;-77
2022/12/01 03:38:59;;;;;;;;;;;6.10;99.90;;;;;;8405541;28;19963;-78
2022/12/01 03:43:02;;;;;;;;;;;6.10;99.90;;;;;;8398316;28;20017;-78
2022/12/01 03:47:07;;;;;;;;;;;6.10;99.90;;;;;;8422170;28;19971;-77
2022/12/01 03:51:17;;;;;;;;;;;6.10;99.90;;;;;;8425346;28;19930;-78
2022/12/01 03:55:28;;;;;;;;;;;6.10;99.90;;;;;;8415234;28;19924;-78
2022/12/01 03:59:34;;;;;;;;;;;6.10;99.90;;;;;;8419322;28;19943;-77
2022/12/01 04:03:36;;;;;;;;;;;6.10;99.90;;;;;;8416830;28;20421;-78
2022/12/01 04:07:38;;;;;;;;;;;6.10;99.90;;;;;;8417922;28;19939;-78
2022/12/01 04:16:00;;;;;;;;;;;6.10;99.90;;;;;;8411449;28;19931;-77
2022/12/01 04:20:03;;;;;;;;;;;6.10;99.90;;;;;;8402644;28;19924;-77
2022/12/01 04:24:05;;;;;;;;;;;6.10;99.90;;;;;;8415047;28;19934;-77
2022/12/01 04:28:06;;;;;;;;;;;6.10;99.90;;;;;;8407432;28;20294;-77
2022/12/01 04:32:08;;;;;;;;;;;6.10;99.90;;;;;;8393049;28;19924;-78
2022/12/01 04:36:10;;;;;;;;;;;6.00;99.90;;;;;;8409469;28;20390;-77
2022/12/01 04:40:11;;;;;;;;;;;6.00;99.90;;;;;;8416206;28;19975;-77
2022/12/01 04:44:13;;;;;;;;;;;6.00;99.90;;;;;;8410126;28;20004;-78
2022/12/01 04:48:15;;;;;;;;;;;6.00;99.90;;;;;;8400985;28;19927;-78
2022/12/01 04:52:17;;;;;;;;;;;5.90;99.90;;;;;;8406044;28;20624;-77
2022/12/01 04:56:18;;;;;;;;;;;5.90;99.90;;;;;;8415189;28;20021;-78
2022/12/01 05:00:20;;;;;;;;;;;5.90;99.90;;;;;;8405633;28;19955;-77
2022/12/01 05:04:22;;;;;;;;;;;5.90;99.90;;;;;;8412377;28;19928;-78
2022/12/01 05:13:38;;;;;;;;;;;5.90;99.90;;;;;;8412454;28;19967;-78
2022/12/01 05:17:55;;;;;;;;;;;5.90;99.90;;;;;;8404923;28;19928;-77
2022/12/01 05:21:57;;;;;;;;;;;5.90;99.90;;;;;;8382877;28;19924;-77
2022/12/01 05:25:59;;;;;;;;;;;5.90;99.90;;;;;;8380357;28;20376;-78
2022/12/01 05:30:00;;;;;;;;;;;5.80;99.90;;;;;;8357814;28;21364;-78
2022/12/01 05:34:02;;;;;;;;;;;5.80;99.90;;;;;;8358468;28;19939;-78
2022/12/01 05:38:03;;;;;;;;;;;5.80;99.90;;;;;;8378364;28;20295;-78
2022/12/01 05:42:08;;;;;;;;;;;5.80;99.90;;;;;;8377368;28;19924;-78
2022/12/01 05:46:10;;;;;;;;;;;5.70;99.90;;;;;;8375222;28;20481;-78
2022/12/01 05:50:11;;;;;;;;;;;5.60;99.90;;;;;;8386286;28;20014;-78
2022/12/01 05:54:15;;;;;;;;;;;5.60;99.90;;;;;;8372792;28;20432;-78
2022/12/01 05:58:16;;;;;;;;;;;5.50;99.90;;;;;;8374560;28;19991;-78
2022/12/01 06:02:18;;;;;;;;;;;5.40;99.90;;;;;;8374167;28;19935;-78
2022/12/01 06:06:20;;;;;;;;;;;5.40;99.90;;;;;;8376404;28;20001;-78
2022/12/01 06:10:21;;;;;;;;;;;5.40;99.90;;;;;;8379702;28;19924;-78
2022/12/01 06:14:23;;;;;;;;;;;5.30;99.90;;;;;;8374020;28;20023;-78
2022/12/01 06:18:36;;;;;;;;;;;5.30;99.90;;;;;;8418227;28;19941;-78
2022/12/01 06:22:37;;;;;;;;;;;5.30;99.90;;;;;;8400177;28;19971;-78
2022/12/01 06:26:39;;;;;;;;;;;5.30;99.90;;;;;;8378956;28;19990;-78
2022/12/01 06:30:41;;;;;;;;;;;5.30;99.90;;;;;;8389523;28;20343;-78
2022/12/01 06:34:43;;;;;;;;;;;5.30;99.90;;;;;;8387568;28;19947;-78
2022/12/01 06:38:44;;;;;;;;;;;5.20;99.90;;;;;;8385545;28;19932;-78
2022/12/01 06:42:46;;;;;;;;;;;5.10;99.90;;;;;;8386428;28;19931;-78
2022/12/01 06:46:51;;;;;;;;;;;5.00;99.90;;;;;;8374638;28;19925;-78
2022/12/01 06:50:55;;;;;;;;;;;4.90;99.90;;;;;;8397160;28;19974;-78
2022/12/01 06:54:57;;;;;;;;;;;4.80;99.90;;;;;;8387230;28;19925;-77
2022/12/01 06:58:59;;;;;;;;;;;4.70;99.90;;;;;;8369394;28;19972;-78
2022/12/01 07:03:01;;;;;;;;;;;4.60;99.90;;;;;;8386679;28;19943;-77
2022/12/01 07:07:05;;;;;;;;;;;4.50;99.90;;;;;;8373497;28;20362;-78
2022/12/01 07:11:08;;;;;;;;;;;4.50;99.90;;;;;;8389412;28;20388;-78
2022/12/01 07:15:10;;;;;;;;;;;4.40;99.90;;;;;;8372377;28;19947;-78
2022/12/01 07:19:11;;;;;;;;;;;4.40;99.90;;;;;;8371509;28;19931;-78
2022/12/01 07:23:13;;;;;;;;;;;4.30;99.90;;;;;;8372437;28;19932;-78
2022/12/01 07:27:15;;;;;;;;;;;4.30;99.90;;;;;;8368656;28;19960;-78
2022/12/01 07:31:17;;;;;;;;;;;4.20;99.90;;;;;;8388376;28;19975;-78
2022/12/01 07:35:19;;;;;;;;;;;4.20;99.90;;;;;;8383589;28;19924;-78
2022/12/01 07:39:21;;;;;;;;;;;4.20;99.90;;;;;;8398535;28;20300;-78
2022/12/01 07:43:23;;;;;;;;;;;4.20;99.90;;;;;;8393544;28;19935;-78
2022/12/01 07:47:24;;;;;;;;;;;4.20;99.90;;;;;;8391010;28;19925;-78
2022/12/01 07:51:26;;;;;;;;;;;4.30;99.90;;;;;;8387684;28;19931;-78
2022/12/01 07:55:27;;;;;;;;;;;4.30;99.90;;;;;;8382727;28;19925;-78
2022/12/01 07:59:29;;;;;;;;;;;4.40;99.90;;;;;;8379362;28;19932;-78
2022/12/01 08:03:31;;;;;;;;;;;4.40;99.90;;;;;;8392656;28;19935;-78
2022/12/01 08:07:32;;;;;;;;;;;4.40;99.90;;;;;;8381579;28;19924;-78
2022/12/01 08:11:34;;;;;;;;;;;4.40;99.90;;;;;;8389667;28;19993;-78
2022/12/01 08:15:36;;;;;;;;;;;4.40;99.90;;;;;;8392068;28;19938;-78
2022/12/01 08:19:38;;;;;;;;;;;4.50;99.90;;;;;;8387408;28;19925;-78
2022/12/01 08:23:40;;;;;;;;;;;4.60;99.90;;;;;;8384536;28;19925;-78
2022/12/01 08:27:42;;;;;;;;;;;4.60;99.90;;;;;;8392685;28;19968;-78
2022/12/01 08:31:44;;;;;;;;;;;4.70;99.90;;;;;;8386996;28;19931;-78
2022/12/01 08:35:45;;;;;;;;;;;4.80;99.90;;;;;;8382563;28;19931;-78
2022/12/01 08:39:47;;;;;;;;;;;4.90;99.90;;;;;;8375541;28;20348;-78
2022/12/01 08:43:49;;;;;;;;;;;4.90;99.90;;;;;;8388289;28;20299;-78
2022/12/01 08:47:59;;;;;;;;;;;5.00;99.90;;;;;;8401081;28;19928;-78
2022/12/01 08:52:01;;;;;;;;;;;5.10;99.90;;;;;;8386956;28;19931;-78
2022/12/01 08:56:09;;;;;;;;;;;5.10;99.90;;;;;;8379679;28;19924;-78
2022/12/01 09:00:11;;;;;;;;;;;5.20;99.90;;;;;;8391631;28;19943;-78
2022/12/01 09:04:13;;;;;;;;;;;5.30;99.90;;;;;;8384359;28;19932;-78
2022/12/01 09:08:30;;;;;;;;;;;5.40;99.90;;;;;;8379614;28;19928;-78
2022/12/01 09:12:31;;;;;;;;;;;5.50;99.90;;;;;;8388690;28;20383;-78
2022/12/01 09:16:33;;;;;;;;;;;5.60;99.90;;;;;;8367616;28;19935;-78
2022/12/01 09:20:34;;;;;;;;;;;5.70;99.90;;;;;;8375159;28;19978;-78
2022/12/01 09:24:37;;;;;;;;;;;5.70;99.90;;;;;;8377297;28;19924;-78
2022/12/01 09:28:38;;;;;;;;;;;5.80;99.90;;;;;;8384524;28;20654;-78
2022/12/01 09:32:40;;;;;;;;;;;5.90;99.90;;;;;;8380726;28;20386;-78
2022/12/01 09:36:41;;;;;;;;;;;6.00;99.90;;;;;;8380146;28;19924;-72
2022/12/01 09:40:43;;;;;;;;;;;6.10;99.90;;;;;;8384736;28;19925;-75
2022/12/01 09:44:52;;;;;;;;;;;6.10;99.90;;;;;;8401370;28;19931;-72
2022/12/01 09:48:56;;;;;;;;;;;6.20;99.90;;;;;;8387487;28;20463;-72
2022/12/01 09:53:00;;;;;;;;;;;6.30;99.90;;;;;;8389548;28;19928;-72
2022/12/01 09:57:02;;;;;;;;;;;6.50;99.90;;;;;;8373190;28;20376;-72
2022/12/01 10:01:04;;;;;;;;;;;6.60;99.90;;;;;;8374635;28;20011;-72
2022/12/01 10:05:22;;;;;;;;;;;6.80;99.90;;;;;;8389996;28;19924;-72
2022/12/01 10:09:43;;;;;;;;;;;7.00;99.90;;;;;;8397425;28;20402;-73
2022/12/01 10:13:44;;;;;;;;;;;7.20;99.90;;;;;;8390768;28;19932;-75
2022/12/01 10:17:46;;;;;;;;;;;7.50;99.90;;;;;;8381565;28;19924;-74
2022/12/01 10:21:54;;;;;;;;;;;7.70;99.90;;;;;;8377953;28;19940;-73
2022/12/01 10:25:57;;;;;;;;;;;7.90;99.90;;;;;;8364372;28;19959;-73
2022/12/01 10:30:04;;;;;;;;;;;8.10;99.90;;;;;;8394133;28;20392;-78
2022/12/01 10:34:11;;;;;;;;;;;8.40;99.90;;;;;;8392038;28;19924;-78
2022/12/01 10:38:27;;;;;;;;;;;8.60;99.90;;;;;;8388556;28;19935;-80
2022/12/01 10:42:36;;;;;;;;;;;8.80;99.90;;;;;;8370942;28;19928;-79
2022/12/01 10:46:44;;;;;;;;;;;9.30;99.90;;;;;;8392274;28;19950;-78
2022/12/01 10:50:52;;;;;;;;;;;9.50;99.90;;;;;;8389512;28;19956;-78
2022/12/01 10:54:54;;;;;;;;;;;9.50;99.90;;;;;;8379946;28;20040;-79
2022/12/01 10:58:58;;;;;;;;;;;9.30;99.90;;;;;;8349891;28;20416;-78
2022/12/01 11:03:00;;;;;;;;;;;9.10;99.90;;;;;;8364865;28;20371;-79
2022/12/01 11:07:02;;;;;;;;;;;9.20;99.90;;;;;;8348531;28;20370;-78
2022/12/01 11:11:05;;;;;;;;;;;9.80;99.90;;;;;;8353497;28;19932;-79
2022/12/01 11:15:07;;;;;;;;;;;10.20;99.90;;;;;;8344901;28;19929;-78
2022/12/01 11:19:27;;;;;;;;;;;10.30;99.90;;;;;;8346036;28;19932;-79
2022/12/01 11:23:29;;;;;;;;;;;10.20;99.90;;;;;;8361193;28;20296;-79
2022/12/01 11:27:35;;;;;;;;;;;9.90;99.90;;;;;;8371035;28;19959;-78
2022/12/01 11:31:38;;;;;;;;;;;10.00;99.90;;;;;;8348347;28;19929;-79
2022/12/01 11:35:45;;;;;;;;;;;10.30;99.90;;;;;;8366580;28;19925;-79
2022/12/01 11:39:47;;;;;;;;;;;10.50;99.90;;;;;;8363068;28;19924;-79
2022/12/01 11:43:49;;;;;;;;;;;11.20;99.90;;;;;;8361806;28;19932;-79
2022/12/01 11:48:04;;;;;;;;;;;12.00;99.90;;;;;;8362272;28;19954;-79
2022/12/01 11:52:23;;;;;;;;;;;12.60;99.90;;;;;;8370438;28;20319;-79
2022/12/01 11:56:27;;;;;;;;;;;13.00;99.90;;;;;;8364358;28;19972;-79
2022/12/01 12:00:36;;;;;;;;;;;13.50;99.90;;;;;;8367468;28;19925;-79
2022/12/01 12:04:56;;;;;;;;;;;14.00;99.90;;;;;;8365279;28;19931;-79
2022/12/01 12:09:24;;;;;;;;;;;14.50;99.90;;;;;;8369782;28;19963;-79
2022/12/01 12:13:39;;;;;;;;;;;15.00;99.90;;;;;;8362077;28;19939;-80
2022/12/01 12:17:50;;;;;;;;;;;15.40;99.90;;;;;;8359781;28;19932;-80
2022/12/01 12:22:03;;;;;;;;;;;15.80;99.90;;;;;;8365945;28;20051;-80
2022/12/01 12:26:05;;;;;;;;;;;15.90;99.90;;;;;;8356482;28;19929;-80
2022/12/01 12:30:06;;;;;;;;;;;16.00;99.90;;;;;;8361114;28;19929;-79
2022/12/01 12:34:11;;;;;;;;;;;16.10;99.90;;;;;;8370169;28;19924;-79
2022/12/01 12:38:32;;;;;;;;;;;16.20;99.90;;;;;;8376710;28;20414;-79
2022/12/01 12:42:42;;;;;;;;;;;16.40;99.90;;;;;;8380420;28;19935;-80
2022/12/01 12:46:43;;;;;;;;;;;16.10;99.90;;;;;;8364060;28;19970;-78
2022/12/01 12:51:07;;;;;;;;;;;15.50;99.90;;;;;;8361979;28;19925;-79
2022/12/01 12:55:14;;;;;;;;;;;14.70;99.90;;;;;;8326147;28;19960;-79
2022/12/01 12:59:20;;;;;;;;;;;14.00;99.90;;;;;;8359656;28;19939;-79
2022/12/01 13:03:21;;;;;;;;;;;13.90;99.90;;;;;;8368162;28;19944;-79
2022/12/01 13:07:43;;;;;;;;;;;14.10;99.90;;;;;;8361945;28;20368;-79
2022/12/01 13:11:51;;;;;;;;;;;14.20;99.90;;;;;;8368176;28;19959;-79
2022/12/01 13:15:54;;;;;;;;;;;13.80;99.90;;;;;;8355943;28;19936;-79
2022/12/01 13:19:56;;;;;;;;;;;13.40;99.90;;;;;;8363336;28;19935;-80
2022/12/01 13:23:57;;;;;;;;;;;13.00;99.90;;;;;;8382508;28;19955;-80
2022/12/01 13:28:01;;;;;;;;;;;12.60;99.90;;;;;;8388525;28;20394;-79
2022/12/01 13:32:03;;;;;;;;;;;12.30;99.90;;;;;;8347532;28;19924;-79
2022/12/01 13:36:10;;;;;;;;;;;12.20;99.90;;;;;;8340175;28;20020;-79
2022/12/01 13:40:32;;;;;;;;;;;12.10;99.90;;;;;;8367798;28;19929;-79
2022/12/01 13:44:44;;;;;;;;;;;12.10;99.90;;;;;;8363599;28;19935;-79
2022/12/01 13:48:46;;;;;;;;;;;11.90;99.90;;;;;;8367762;28;20004;-80
2022/12/01 13:52:48;;;;;;;;;;;11.50;99.90;;;;;;8373306;28;19964;-80
2022/12/01 13:57:04;;;;;;;;;;;11.30;99.90;;;;;;8371926;28;20027;-79
2022/12/01 14:01:21;;;;;;;;;;;11.20;99.90;;;;;;8370640;28;20366;-78
2022/12/01 14:05:23;;;;;;;;;;;11.10;99.90;;;;;;8362077;28;19925;-79
2022/12/01 14:09:32;;;;;;;;;;;11.00;99.90;;;;;;8369097;28;20266;-79
2022/12/01 14:13:48;;;;;;;;;;;10.90;99.90;;;;;;8368734;28;20396;-79
2022/12/01 14:18:19;;;;;;;;;;;10.80;99.90;;;;;;8366319;28;20367;-79
2022/12/01 14:22:42;;;;;;;;;;;10.70;99.90;;;;;;8361468;28;19925;-79
2022/12/01 14:26:44;;;;;;;;;;;10.60;99.90;;;;;;8361050;28;19940;-79
2022/12/01 14:30:50;;;;;;;;;;;10.60;99.90;;;;;;8371195;28;19939;-79
2022/12/01 14:34:54;;;;;;;;;;;10.60;99.90;;;;;;8367714;28;20381;-79
2022/12/01 14:38:56;;;;;;;;;;;10.60;99.90;;;;;;8367637;28;19950;-79
2022/12/01 14:47:21;;;;;;;;;;;11.50;99.90;;;;;;8364621;28;19931;-79
2022/12/01 14:51:27;;;;;;;;;;;12.00;99.90;;;;;;8363870;28;20467;-79
2022/12/01 14:55:33;;;;;;;;;;;12.30;99.90;;;;;;8361842;28;19925;-79
2022/12/01 14:59:34;;;;;;;;;;;12.50;99.90;;;;;;8370095;28;19932;-79
2022/12/01 15:03:38;;;;;;;;;;;12.60;99.90;;;;;;8374889;28;20024;-79
2022/12/01 15:07:42;;;;;;;;;;;12.60;99.90;;;;;;8376055;28;19924;-79
2022/12/01 15:11:52;;;;;;;;;;;12.50;99.90;;;;;;8358467;28;19932;-79
2022/12/01 15:16:02;;;;;;;;;;;12.30;99.90;;;;;;8349328;28;20495;-79
2022/12/01 15:20:23;;;;;;;;;;;12.00;99.90;;;;;;8368110;28;19978;-79
2022/12/01 15:24:27;;;;;;;;;;;11.60;99.90;;;;;;8368789;28;19936;-78
2022/12/01 15:28:33;;;;;;;;;;;11.10;99.90;;;;;;8366619;28;20295;-79
2022/12/01 15:32:38;;;;;;;;;;;10.60;99.90;;;;;;8363443;28;19954;-78
2022/12/01 15:36:40;;;;;;;;;;;10.10;99.90;;;;;;8364579;28;19967;-79
2022/12/01 15:40:42;;;;;;;;;;;9.70;99.90;;;;;;8369552;28;20359;-79
2022/12/01 15:45:18;;;;;;;;;;;9.40;99.90;;;;;;8349879;28;19924;-79
2022/12/01 15:49:26;;;;;;;;;;;9.10;99.90;;;;;;8364142;28;20399;-78
2022/12/01 15:53:32;;;;;;;;;;;8.80;99.90;;;;;;8373741;28;19978;-79
2022/12/01 15:57:34;;;;;;;;;;;8.60;99.90;;;;;;8373379;28;19935;-79
2022/12/01 16:01:36;;;;;;;;;;;8.30;99.90;;;;;;8358819;28;19940;-79
2022/12/01 16:05:42;;;;;;;;;;;8.10;99.90;;;;;;8360795;28;20477;-78
2022/12/01 16:09:54;;;;;;;;;;;7.90;99.90;;;;;;8343985;28;19925;-79
2022/12/01 16:14:01;;;;;;;;;;;7.70;99.90;;;;;;8365231;28;20299;-78
2022/12/01 16:18:17;;;;;;;;;;;7.60;99.90;;;;;;8364006;28;19928;-79
2022/12/01 16:22:20;;;;;;;;;;;7.50;99.90;;;;;;8368193;28;19935;-79
2022/12/01 16:26:22;;;;;;;;;;;7.40;99.90;;;;;;8345430;28;19960;-79
2022/12/01 16:30:25;;;;;;;;;;;7.30;99.90;;;;;;8344602;28;20277;-79
2022/12/01 16:34:27;;;;;;;;;;;7.30;99.90;;;;;;8366123;28;19925;-78
2022/12/01 16:38:48;;;;;;;;;;;7.10;99.90;;;;;;8357677;28;20395;-78
2022/12/01 16:42:50;;;;;;;;;;;7.00;99.90;;;;;;8362058;28;19976;-78
2022/12/01 16:46:52;;;;;;;;;;;6.80;99.90;;;;;;8360818;28;19935;-78
2022/12/01 16:50:53;;;;;;;;;;;6.70;99.90;;;;;;8349933;28;19925;-78
2022/12/01 16:54:55;;;;;;;;;;;6.70;99.90;;;;;;8368436;28;20083;-79
2022/12/01 16:58:57;;;;;;;;;;;6.60;99.90;;;;;;8364725;28;20412;-79
2022/12/01 17:02:59;;;;;;;;;;;6.50;99.90;;;;;;8360674;28;20019;-78
2022/12/01 17:07:00;;;;;;;;;;;6.50;99.90;;;;;;8368319;28;19971;-78
2022/12/01 17:11:04;;;;;;;;;;;6.40;99.90;;;;;;8346331;28;20525;-78
2022/12/01 17:15:06;;;;;;;;;;;6.30;99.90;;;;;;8344969;28;19931;-78
2022/12/01 17:19:08;;;;;;;;;;;6.30;99.90;;;;;;8365481;28;19925;-78
2022/12/01 17:23:10;;;;;;;;;;;6.30;99.90;;;;;;8361568;28;20059;-79
2022/12/01 17:27:12;;;;;;;;;;;6.10;99.90;;;;;;8364698;28;19998;-78
2022/12/01 17:31:13;;;;;;;;;;;6.00;99.90;;;;;;8362167;28;19924;-78
2022/12/01 17:35:15;;;;;;;;;;;5.90;99.90;;;;;;8363056;28;19995;-78
2022/12/01 17:39:18;;;;;;;;;;;5.80;99.90;;;;;;8372513;28;20973;-79
2022/12/01 17:43:19;;;;;;;;;;;5.70;99.90;;;;;;8369853;28;19994;-79
2022/12/01 17:47:21;;;;;;;;;;;5.70;99.90;;;;;;8372940;28;19924;-79
2022/12/01 17:51:23;;;;;;;;;;;5.60;99.90;;;;;;8362233;28;20008;-79
2022/12/01 17:55:24;;;;;;;;;;;5.50;99.90;;;;;;8362170;28;19936;-79
2022/12/01 17:59:26;;;;;;;;;;;5.50;99.90;;;;;;8341110;28;20034;-79
2022/12/01 18:03:28;;;;;;;;;;;5.40;99.90;;;;;;8358478;28;21502;-79
2022/12/01 18:07:29;;;;;;;;;;;5.40;99.90;;;;;;8367271;28;19924;-79
2022/12/01 18:11:31;;;;;;;;;;;5.30;99.90;;;;;;8357058;28;20362;-79
2022/12/01 18:15:33;;;;;;;;;;;5.20;99.90;;;;;;8373161;28;19932;-79
2022/12/01 18:19:35;;;;;;;;;;;5.10;99.90;;;;;;8351537;28;20375;-79
2022/12/01 18:23:37;;;;;;;;;;;5.10;99.90;;;;;;8364236;28;19943;-79
2022/12/01 18:27:39;;;;;;;;;;;5.00;99.90;;;;;;8377257;28;19953;-79
2022/12/01 18:31:40;;;;;;;;;;;5.00;99.90;;;;;;8354853;28;19946;-80
2022/12/01 18:35:43;;;;;;;;;;;5.00;99.90;;;;;;8352970;28;19993;-78
2022/12/01 18:39:45;;;;;;;;;;;5.00;99.90;;;;;;8372370;28;19929;-79
2022/12/01 18:43:46;;;;;;;;;;;4.90;99.90;;;;;;8349265;28;19925;-79
2022/12/01 18:47:48;;;;;;;;;;;4.80;99.90;;;;;;8366603;28;19968;-79
2022/12/01 18:51:49;;;;;;;;;;;4.80;99.90;;;;;;8365601;28;19925;-79
2022/12/01 18:55:51;;;;;;;;;;;4.70;99.90;;;;;;8373843;28;20038;-79
2022/12/01 18:59:53;;;;;;;;;;;4.60;99.90;;;;;;8367767;28;20467;-78
2022/12/01 19:03:55;;;;;;;;;;;4.50;99.90;;;;;;8373869;28;19943;-78
2022/12/01 19:07:56;;;;;;;;;;;4.50;99.90;;;;;;8374033;28;19932;-78
2022/12/01 19:11:59;;;;;;;;;;;4.50;99.90;;;;;;8349609;28;20311;-78
2022/12/01 19:16:07;;;;;;;;;;;4.40;99.90;;;;;;8365960;28;19932;-79
2022/12/01 19:20:09;;;;;;;;;;;4.40;99.90;;;;;;8367594;28;19936;-78
2022/12/01 19:24:11;;;;;;;;;;;4.30;99.90;;;;;;8365446;28;20295;-78
2022/12/01 19:28:13;;;;;;;;;;;4.30;99.90;;;;;;8344859;28;19932;-78
2022/12/01 19:32:14;;;;;;;;;;;4.30;99.90;;;;;;8345519;28;19990;-78
2022/12/01 19:36:17;;;;;;;;;;;4.30;99.90;;;;;;8369012;28;19986;-78
2022/12/01 19:40:19;;;;;;;;;;;4.20;99.90;;;;;;8374020;28;19924;-78
2022/12/01 19:44:21;;;;;;;;;;;4.20;99.90;;;;;;8376284;28;19936;-78
2022/12/01 19:48:22;;;;;;;;;;;4.20;99.90;;;;;;8346595;28;19976;-78
2022/12/01 19:52:24;;;;;;;;;;;4.20;99.90;;;;;;8342840;28;19936;-78
2022/12/01 19:56:27;;;;;;;;;;;4.30;99.90;;;;;;8359200;28;19963;-78
2022/12/01 20:00:29;;;;;;;;;;;4.40;99.90;;;;;;8361774;28;20288;-78
2022/12/01 20:04:30;;;;;;;;;;;4.40;99.90;;;;;;8371046;28;19928;-78
2022/12/01 20:08:32;;;;;;;;;;;4.50;99.90;;;;;;8371111;28;19935;-78
2022/12/01 20:12:36;;;;;;;;;;;4.50;99.90;;;;;;8375564;28;20426;-78
2022/12/01 20:16:38;;;;;;;;;;;4.60;99.90;;;;;;8358720;28;19929;-78
2022/12/01 20:20:39;;;;;;;;;;;4.70;99.90;;;;;;8362045;28;19976;-78
2022/12/01 20:24:41;;;;;;;;;;;4.90;99.90;;;;;;8361357;28;19950;-78
2022/12/01 20:28:44;;;;;;;;;;;5.00;99.90;;;;;;8357030;28;19935;-78
2022/12/01 20:32:46;;;;;;;;;;;5.00;99.90;;;;;;8370105;28;19932;-78
2022/12/01 20:36:47;;;;;;;;;;;5.10;99.90;;;;;;8372343;28;19928;-78
2022/12/01 20:40:50;;;;;;;;;;;5.10;99.90;;;;;;8342847;28;20269;-78
2022/12/01 20:44:52;;;;;;;;;;;5.10;99.90;;;;;;8361049;28;20016;-78
2022/12/01 20:48:53;;;;;;;;;;;5.10;99.90;;;;;;8367782;28;20026;-78
2022/12/01 20:52:55;;;;;;;;;;;5.10;99.90;;;;;;8358714;28;19952;-78
2022/12/01 20:56:57;;;;;;;;;;;5.10;99.90;;;;;;8360964;28;19928;-78
2022/12/01 21:00:59;;;;;;;;;;;5.10;99.90;;;;;;8360467;28;20380;-78
2022/12/01 21:05:01;;;;;;;;;;;5.20;99.90;;;;;;8354009;28;19933;-78
2022/12/01 21:09:03;;;;;;;;;;;5.20;99.90;;;;;;8360985;28;20415;-78
2022/12/01 21:13:43;;;;;;;;;;;5.20;99.90;;;;;;8345385;28;20087;-78
2022/12/01 21:17:48;;;;;;;;;;;5.30;99.90;;;;;;8359358;28;19935;-78
2022/12/01 21:21:50;;;;;;;;;;;5.30;99.90;;;;;;8363968;28;19962;-78
2022/12/01 21:25:52;;;;;;;;;;;5.30;99.90;;;;;;8359661;28;19956;-78
2022/12/01 21:29:54;;;;;;;;;;;5.30;99.90;;;;;;8353185;28;20293;-78
2022/12/01 21:33:55;;;;;;;;;;;5.40;99.90;;;;;;8363709;28;20307;-78
2022/12/01 21:37:59;;;;;;;;;;;5.40;99.90;;;;;;8362145;28;19925;-78
2022/12/01 21:42:11;;;;;;;;;;;5.40;99.90;;;;;;8363682;28;19940;-78
2022/12/01 21:46:14;;;;;;;;;;;5.40;99.90;;;;;;8354613;28;20353;-78
2022/12/01 21:50:19;;;;;;;;;;;5.40;99.90;;;;;;8359732;28;20007;-78
2022/12/01 21:54:24;;;;;;;;;;;5.40;99.90;;;;;;8363237;28;20288;-78
2022/12/01 21:58:28;;;;;;;;;;;5.50;99.90;;;;;;8358506;28;20251;-78
2022/12/01 22:02:50;;;;;;;;;;;5.50;99.90;;;;;;8374130;28;20219;-78
2022/12/01 22:06:52;;;;;;;;;;;5.50;99.90;;;;;;8391153;28;19929;-78
2022/12/01 22:10:58;;;;;;;;;;;5.50;99.90;;;;;;8389914;28;20377;-78
2022/12/01 22:15:00;;;;;;;;;;;5.50;99.90;;;;;;8389393;28;20291;-78
2022/12/01 22:19:21;;;;;;;;;;;5.50;99.90;;;;;;8404980;28;20012;-78
2022/12/01 22:23:26;;;;;;;;;;;5.50;99.90;;;;;;8374127;28;20384;-78
2022/12/01 22:27:28;;;;;;;;;;;5.50;99.90;;;;;;8355847;28;19936;-78
2022/12/01 22:31:30;;;;;;;;;;;5.50;99.90;;;;;;8386039;28;21817;-78
2022/12/01 22:35:33;;;;;;;;;;;5.50;99.90;;;;;;8383128;28;20398;-78
2022/12/01 22:39:34;;;;;;;;;;;5.50;99.90;;;;;;8388527;28;20318;-78
2022/12/01 22:43:39;;;;;;;;;;;5.50;99.90;;;;;;8390647;28;19929;-78
2022/12/01 22:47:41;;;;;;;;;;;5.50;99.90;;;;;;8392520;28;19924;-78
2022/12/01 22:51:58;;;;;;;;;;;5.50;99.90;;;;;;8382681;28;20298;-78
2022/12/01 22:56:00;;;;;;;;;;;5.50;99.90;;;;;;8384333;28;19925;-78
2022/12/01 23:00:13;;;;;;;;;;;5.50;99.90;;;;;;8385859;28;19958;-78
2022/12/01 23:04:19;;;;;;;;;;;5.50;99.90;;;;;;8379156;28;19931;-78
2022/12/01 23:08:22;;;;;;;;;;;5.50;99.90;;;;;;8382524;28;19924;-78
2022/12/01 23:12:25;;;;;;;;;;;5.50;99.90;;;;;;8385542;28;19932;-78
2022/12/01 23:16:27;;;;;;;;;;;5.50;99.90;;;;;;8380130;28;19941;-78
2022/12/01 23:20:30;;;;;;;;;;;5.50;99.90;;;;;;8381555;28;19928;-78
2022/12/01 23:24:32;;;;;;;;;;;5.50;99.90;;;;;;8370247;28;19986;-78
2022/12/01 23:28:35;;;;;;;;;;;5.50;99.90;;;;;;8396559;28;19929;-78
2022/12/01 23:32:37;;;;;;;;;;;5.60;99.90;;;;;;8374645;28;19928;-78
2022/12/01 23:36:38;;;;;;;;;;;5.60;99.90;;;;;;8392672;28;19928;-78
2022/12/01 23:40:40;;;;;;;;;;;5.50;99.90;;;;;;8389927;28;19943;-78
2022/12/01 23:44:45;;;;;;;;;;;5.50;99.90;;;;;;8369530;28;19928;-78
2022/12/01 23:48:49;;;;;;;;;;;5.60;99.90;;;;;;8397932;28;19943;-78
2022/12/01 23:52:51;;;;;;;;;;;5.60;99.90;;;;;;8388400;28;19970;-78
2022/12/01 23:57:03;;;;;;;;;;;5.60;99.90;;;;;;8383939;28;19929;-79
